Time;durP1;ratioP1;P1;durP2;ratioP2;P2;SDS_P1;SDS_P2;PMS_P1;PMS_P2;Temp;Humidity;BMP_temperature;BMP_pressure;BME280_temperature;BME280_humidity;BME280_pressure;Samples;Min_cycle;Max_cycle;Signal;HPM_P1;HPM_P2
2022/08/10 00:01:04;;;;;;;9.00;7.22;;;;;;;18.41;100.00;97574.84;5029569;28;20435;-79
2022/08/10 00:03:30;;;;;;;12.75;8.35;;;;;;;18.31;100.00;97551.47;5040584;28;20013;-79
2022/08/10 00:05:59;;;;;;;12.88;8.48;;;;;;;18.19;100.00;97526.38;5021073;28;20508;-79
2022/08/10 00:08:32;;;;;;;10.25;7.72;;;;;;;18.24;100.00;97550.34;5044853;28;20029;-79
2022/08/10 00:11:03;;;;;;;11.10;8.80;;;;;;;18.47;100.00;97599.66;5020423;28;20081;-79
2022/08/10 00:13:29;;;;;;;12.15;8.73;;;;;;;18.10;100.00;97554.31;5018693;28;20138;-79
2022/08/10 00:16:07;;;;;;;10.98;8.50;;;;;;;18.25;100.00;97579.09;5027384;28;20129;-79
2022/08/10 00:18:35;;;;;;;14.57;9.07;;;;;;;18.02;100.00;97537.94;5043683;28;20456;-80
2022/08/10 00:21:04;;;;;;;15.23;8.13;;;;;;;18.07;100.00;97564.56;5032474;28;20173;-79
2022/08/10 00:23:36;;;;;;;16.70;9.82;;;;;;;17.85;100.00;97528.63;5016359;28;20049;-80
2022/08/10 00:26:05;;;;;;;;;;;;;;;18.23;100.00;97598.22;5032489;28;20065;-78
2022/08/10 00:28:34;;;;;;;13.77;9.60;;;;;;;18.03;100.00;97571.25;5047198;28;19936;-79
2022/08/10 00:31:03;;;;;;;14.32;9.35;;;;;;;17.86;100.00;97561.97;5012602;28;20086;-78
2022/08/10 00:33:28;;;;;;;14.02;10.07;;;;;;;17.99;100.00;97586.06;5042790;28;20037;-76
2022/08/10 00:35:59;;;;;;;15.60;9.57;;;;;;;17.85;100.00;97576.50;5028834;28;20120;-78
2022/08/10 00:38:27;;;;;;;17.67;10.02;;;;;;;17.92;100.00;97585.78;5029333;28;20154;-77
2022/08/10 00:40:53;;;;;;;13.25;9.10;;;;;;;17.93;100.00;97582.09;5018535;28;20041;-78
2022/08/10 00:43:21;;;;;;;12.35;9.10;;;;;;;18.00;100.00;97595.88;5046306;27;20056;-77
2022/08/10 00:45:46;;;;;;;17.90;9.38;;;;;;;17.91;100.00;97580.50;5020746;28;20033;-78
2022/08/10 00:48:15;;;;;;;13.40;8.90;;;;;;;17.93;100.00;97589.34;5020847;28;20043;-79
2022/08/10 00:50:41;;;;;;;13.13;8.68;;;;;;;17.97;100.00;97588.03;5046697;28;20568;-79
2022/08/10 00:53:07;;;;;;;13.23;9.45;;;;;;;18.06;100.00;97589.91;5025993;28;20021;-80
2022/08/10 00:55:36;;;;;;;20.35;8.95;;;;;;;18.13;100.00;97588.38;5033733;28;20468;-79
2022/08/10 00:58:02;;;;;;;12.55;8.38;;;;;;;18.00;100.00;97566.09;5026593;28;20021;-79
2022/08/10 01:00:28;;;;;;;14.15;8.55;;;;;;;18.10;100.00;97575.09;5016578;28;20560;-79
2022/08/10 01:02:56;;;;;;;11.95;8.18;;;;;;;18.04;100.00;97570.25;5031279;28;20064;-79
2022/08/10 01:05:25;;;;;;;10.95;8.30;;;;;;;17.99;100.00;97557.16;5024251;28;20114;-79
2022/08/10 01:08:36;;;;;;;10.75;7.65;;;;;;;18.17;100.00;97597.94;5030081;28;20404;-79
2022/08/10 01:11:25;;;;;;;11.50;7.38;;;;;;;17.75;100.00;97525.06;5004837;28;20037;-78
2022/08/10 01:14:12;;;;;;;9.55;7.38;;;;;;;18.12;100.00;97579.38;5020587;28;20454;-78
2022/08/10 01:17:13;;;;;;;15.00;7.43;;;;;;;18.13;100.00;97594.63;5039385;28;20033;-79
2022/08/10 01:20:03;;;;;;;25.92;8.90;;;;;;;18.16;100.00;97597.06;5037626;28;20034;-78
2022/08/10 01:22:47;;;;;;;15.85;6.85;;;;;;;18.18;100.00;97592.34;5030179;28;20042;-79
2022/08/10 01:25:41;;;;;;;10.77;7.85;;;;;;;18.14;100.00;97593.66;5027433;28;20036;-79
2022/08/10 01:28:44;;;;;;;12.23;7.78;;;;;;;18.18;100.00;97597.78;5010186;28;20025;-79
2022/08/10 01:31:11;;;;;;;;;;;;;;;18.15;100.00;97608.06;5026607;28;20086;-79
2022/08/10 01:33:51;;;;;;;12.85;8.65;;;;;;;17.96;100.00;97597.19;5042921;28;19924;-77
2022/08/10 01:36:26;;;;;;;11.90;7.53;;;;;;;17.83;100.00;97595.59;5026471;28;20018;-77
2022/08/10 01:38:53;;;;;;;11.50;8.18;;;;;;;17.78;100.00;97592.44;5025964;28;20021;-77
2022/08/10 01:41:24;;;;;;;9.73;8.23;;;;;;;17.77;100.00;97596.16;5030074;28;20069;-77
2022/08/10 01:43:57;;;;;;;14.57;7.35;;;;;;;17.73;100.00;97594.69;5045973;28;20112;-76
2022/08/10 01:46:23;;;;;;;18.27;9.05;;;;;;;17.64;100.00;97591.97;5024016;28;20089;-77
2022/08/10 01:48:54;;;;;;;10.55;6.55;;;;;;;17.69;100.00;97589.69;5041909;28;20500;-77
2022/08/10 01:51:38;;;;;;;12.23;8.23;;;;;;;17.57;100.00;97578.13;5042503;28;20400;-77
2022/08/10 01:54:08;;;;;;;11.80;7.38;;;;;;;17.63;100.00;97588.41;5010788;28;20636;-77
2022/08/10 01:56:36;;;;;;;15.75;8.18;;;;;;;17.55;100.00;97582.81;5009726;28;20033;-76
2022/08/10 01:59:06;;;;;;;15.20;8.10;;;;;;;17.49;100.00;97583.34;5043182;28;20025;-78
2022/08/10 02:01:37;;;;;;;15.95;7.70;;;;;;;17.45;100.00;97584.59;5037900;28;20033;-79
2022/08/10 02:04:06;;;;;;;11.43;7.70;;;;;;;17.39;100.00;97578.88;5011226;28;20021;-78
2022/08/10 02:06:45;;;;;;;11.23;7.82;;;;;;;17.42;100.00;97579.47;5034133;28;20036;-79
2022/08/10 02:09:14;;;;;;;17.58;8.38;;;;;;;17.46;100.00;97582.75;5030857;28;20078;-78
2022/08/10 02:11:42;;;;;;;12.15;8.38;;;;;;;17.51;100.00;97577.78;5044791;28;20025;-79
2022/08/10 02:14:09;;;;;;;13.00;8.80;;;;;;;17.54;100.00;97581.06;5048937;28;20037;-79
2022/08/10 02:16:36;;;;;;;14.52;8.32;;;;;;;17.49;100.00;97586.03;5018199;28;20476;-79
2022/08/10 02:19:02;;;;;;;18.15;8.77;;;;;;;17.51;100.00;97577.78;5029204;28;20483;-79
2022/08/10 02:21:29;;;;;;;10.90;8.05;;;;;;;17.54;100.00;97574.81;5035792;28;20085;-79
2022/08/10 02:23:54;;;;;;;14.23;9.18;;;;;;;17.51;100.00;97565.13;5014065;28;20018;-78
2022/08/10 02:26:20;;;;;;;22.88;8.43;;;;;;;17.49;100.00;97563.56;5023153;28;20094;-78
2022/08/10 02:28:46;;;;;;;13.25;8.45;;;;;;;17.43;100.00;97564.97;5048274;28;20025;-78
2022/08/10 02:31:17;;;;;;;17.45;8.93;;;;;;;17.46;100.00;97577.34;5031921;28;20033;-78
2022/08/10 02:33:45;;;;;;;16.60;8.40;;;;;;;17.44;100.00;97577.50;5042032;28;20044;-78
2022/08/10 02:36:12;;;;;;;15.73;8.85;;;;;;;17.47;100.00;97579.94;5021411;28;20104;-79
2022/08/10 02:38:42;;;;;;;13.57;8.77;;;;;;;17.48;100.00;97592.44;5029223;28;20030;-78
2022/08/10 02:41:12;;;;;;;16.92;10.50;;;;;;;17.47;100.00;97589.88;5030713;28;20381;-78
2022/08/10 02:43:46;;;;;;;15.65;9.32;;;;;;;17.44;100.00;97582.03;5025450;28;20116;-78
2022/08/10 02:46:22;;;;;;;14.45;9.50;;;;;;;17.35;100.00;97583.69;5048475;28;20431;-78
2022/08/10 02:48:57;;;;;;;19.05;11.27;;;;;;;17.27;100.00;97592.50;5031985;28;20051;-78
2022/08/10 02:51:51;;;;;;;13.27;9.75;;;;;;;17.27;100.00;97581.69;5048393;28;20067;-78
2022/08/10 02:54:21;;;;;;;14.57;10.57;;;;;;;17.28;100.00;97586.13;5036791;28;20064;-78
2022/08/10 02:57:29;;;;;;;17.70;10.13;;;;;;;17.28;100.00;97580.69;5042218;28;20060;-79
2022/08/10 03:00:01;;;;;;;16.88;10.75;;;;;;;17.33;100.00;97581.16;5032430;28;20041;-78
2022/08/10 03:02:34;;;;;;;13.05;10.27;;;;;;;17.40;100.00;97594.13;5022732;28;20025;-79
2022/08/10 03:05:04;;;;;;;19.80;10.35;;;;;;;17.50;100.00;97595.03;5030264;28;20044;-79
2022/08/10 03:07:58;;;;;;;18.58;10.00;;;;;;;17.55;100.00;97600.91;5029106;28;20061;-78
2022/08/10 03:10:27;;;;;;;17.00;10.13;;;;;;;17.54;100.00;97599.16;5018501;28;20035;-79
2022/08/10 03:13:00;;;;;;;16.15;10.13;;;;;;;17.55;100.00;97604.47;5032762;28;20044;-78
2022/08/10 03:15:30;;;;;;;14.40;9.90;;;;;;;17.56;100.00;97605.31;5027571;28;20488;-78
2022/08/10 03:17:57;;;;;;;17.85;10.95;;;;;;;17.60;100.00;97604.91;5029871;28;20024;-79
2022/08/10 03:20:23;;;;;;;16.58;11.48;;;;;;;17.66;100.00;97603.50;5029467;28;20036;-78
2022/08/10 03:22:49;;;;;;;17.73;12.02;;;;;;;17.62;100.00;97594.81;5028292;28;20459;-78
2022/08/10 03:25:15;;;;;;;19.98;11.38;;;;;;;17.61;100.00;97612.03;5036159;28;20129;-78
2022/08/10 03:27:41;;;;;;;12.32;9.63;;;;;;;17.57;100.00;97621.41;5033223;28;20025;-78
2022/08/10 03:30:08;;;;;;;18.83;12.25;;;;;;;17.66;100.00;97628.69;5032527;28;20040;-79
2022/08/10 03:32:34;;;;;;;25.33;12.60;;;;;;;17.70;100.00;97630.16;5027838;28;20052;-78
2022/08/10 03:35:00;;;;;;;18.17;11.65;;;;;;;17.65;100.00;97631.56;5042064;28;20115;-78
2022/08/10 03:37:26;;;;;;;16.83;11.73;;;;;;;17.64;100.00;97632.53;5047705;28;20451;-78
2022/08/10 03:39:53;;;;;;;15.05;10.50;;;;;;;17.58;100.00;97617.72;5018383;28;20401;-79
2022/08/10 03:42:19;;;;;;;12.73;10.25;;;;;;;17.63;100.00;97630.81;5030402;28;20116;-79
2022/08/10 03:44:46;;;;;;;17.00;11.25;;;;;;;17.58;100.00;97633.94;5027858;28;20026;-79
2022/08/10 03:47:13;;;;;;;14.88;11.38;;;;;;;17.60;100.00;97631.94;5027959;28;20550;-79
2022/08/10 03:49:39;;;;;;;20.38;12.07;;;;;;;17.48;100.00;97634.84;5018209;28;20030;-78
2022/08/10 03:52:05;;;;;;;17.27;11.73;;;;;;;17.62;100.00;97648.94;5027096;28;20382;-78
2022/08/10 03:54:32;;;;;;;24.77;11.50;;;;;;;17.67;100.00;97643.09;5019621;28;20045;-78
2022/08/10 03:56:58;;;;;;;21.73;9.18;;;;;;;17.70;100.00;97653.63;5041082;28;20040;-79
2022/08/10 03:59:23;;;;;;;20.75;10.13;;;;;;;17.64;100.00;97644.22;5029130;28;20033;-79
2022/08/10 04:01:50;;;;;;;22.73;9.60;;;;;;;17.54;100.00;97645.13;5027799;28;20026;-79
2022/08/10 04:04:16;;;;;;;19.35;10.40;;;;;;;17.58;100.00;97655.59;5019336;28;20070;-79
2022/08/10 04:06:42;;;;;;;19.05;10.88;;;;;;;17.71;100.00;97647.25;5039599;28;20041;-79
2022/08/10 04:09:08;;;;;;;20.63;12.18;;;;;;;17.77;100.00;97649.41;5047321;28;20543;-79
2022/08/10 04:11:35;;;;;;;22.02;10.95;;;;;;;17.88;100.00;97650.16;5037482;28;20037;-78
2022/08/10 04:14:02;;;;;;;19.98;11.43;;;;;;;17.95;100.00;97655.00;5016198;28;20031;-79
2022/08/10 04:16:28;;;;;;;18.63;10.75;;;;;;;18.03;100.00;97656.03;5037528;28;20059;-79
2022/08/10 04:18:53;;;;;;;25.20;11.20;;;;;;;18.23;100.00;97649.69;5042255;28;20092;-78
2022/08/10 04:21:36;;;;;;;25.85;15.15;;;;;;;18.43;100.00;97664.09;5026105;28;20064;-79
2022/08/10 04:24:04;;;;;;;16.65;11.27;;;;;;;18.57;100.00;97673.69;5016221;28;20025;-79
2022/08/10 04:26:30;;;;;;;21.15;10.07;;;;;;;18.62;100.00;97658.72;5036298;28;20128;-79
2022/08/10 04:28:55;;;;;;;24.88;11.63;;;;;;;18.94;100.00;97653.03;5047035;28;20108;-79
2022/08/10 04:31:21;;;;;;;15.80;11.05;;;;;;;19.01;100.00;97664.16;5030248;28;20035;-77
2022/08/10 04:33:49;;;;;;;21.30;10.63;;;;;;;18.94;100.00;97669.28;5046737;28;20148;-78
2022/08/10 04:36:16;;;;;;;16.83;11.27;;;;;;;18.77;100.00;97670.84;5046800;28;20123;-80
2022/08/10 04:38:42;;;;;;;20.13;11.23;;;;;;;18.76;100.00;97677.28;5028688;28;20032;-78
2022/08/10 04:41:08;;;;;;;20.17;10.43;;;;;;;18.66;100.00;97668.28;5018838;28;20041;-80
2022/08/10 04:43:33;;;;;;;18.25;10.77;;;;;;;18.67;100.00;97666.44;5010383;28;20034;-84
2022/08/10 04:45:59;;;;;;;29.25;13.02;;;;;;;18.51;100.00;97669.72;5023981;28;20085;-83
2022/08/10 04:48:25;;;;;;;24.17;13.45;;;;;;;18.42;100.00;97660.53;5046699;28;20039;-80
2022/08/10 04:50:51;;;;;;;18.52;11.73;;;;;;;18.56;100.00;97667.41;5046683;28;20085;-80
2022/08/10 04:53:17;;;;;;;19.17;10.90;;;;;;;18.53;100.00;97662.28;5038086;28;20032;-78
2022/08/10 04:55:42;;;;;;;16.98;11.48;;;;;;;18.63;100.00;97659.59;5027790;28;20425;-78
2022/08/10 04:58:08;;;;;;;16.40;11.90;;;;;;;18.66;100.00;97657.44;5028703;28;20051;-79
2022/08/10 05:00:33;;;;;;;17.48;12.68;;;;;;;18.71;100.00;97655.16;5046395;28;20044;-79
2022/08/10 05:02:59;;;;;;;18.20;11.73;;;;;;;18.82;100.00;97659.59;5041683;28;20029;-78
2022/08/10 05:05:25;;;;;;;18.27;11.70;;;;;;;18.93;100.00;97657.56;5034574;28;20105;-78
2022/08/10 05:07:50;;;;;;;22.80;10.73;;;;;;;18.97;100.00;97646.44;5020227;28;20040;-79
2022/08/10 05:10:16;;;;;;;20.48;10.07;;;;;;;19.10;100.00;97652.44;5041328;28;20043;-79
2022/08/10 05:12:42;;;;;;;25.60;14.43;;;;;;;19.26;100.00;97658.09;5009983;28;20037;-79
2022/08/10 05:15:09;;;;;;;21.30;13.60;;;;;;;19.37;100.00;97655.22;5022248;28;20036;-80
2022/08/10 05:17:36;;;;;;;37.97;21.83;;;;;;;19.57;100.00;97656.88;5046333;28;20381;-79
2022/08/10 05:20:24;;;;;;;25.23;14.40;;;;;;;19.38;100.00;97646.09;5043059;28;20537;-79
2022/08/10 05:22:49;;;;;;;21.80;12.40;;;;;;;19.54;100.00;97649.03;5027401;28;20065;-80
2022/08/10 05:25:17;;;;;;;27.30;13.35;;;;;;;19.66;100.00;97649.72;5024454;28;20067;-79
2022/08/10 05:27:44;;;;;;;30.92;11.73;;;;;;;19.75;100.00;97652.41;5046137;28;20088;-79
2022/08/10 05:30:19;;;;;;;17.95;10.07;;;;;;;19.94;100.00;97648.75;5046271;28;20033;-78
2022/08/10 05:32:45;;;;;;;18.60;11.63;;;;;;;20.31;100.00;97654.13;5046110;28;20037;-79
2022/08/10 05:35:11;;;;;;;21.08;12.13;;;;;;;21.57;95.03;97642.00;5029592;28;20101;-79
2022/08/10 05:37:37;;;;;;;33.05;14.48;;;;;;;23.35;82.36;97648.00;5020825;28;20120;-79
2022/08/10 05:40:04;;;;;;;31.52;12.80;;;;;;;24.76;73.74;97649.72;5015496;28;20025;-79
2022/08/10 05:42:30;;;;;;;23.50;16.15;;;;;;;25.97;67.47;97628.63;5033111;28;20017;-79
2022/08/10 05:44:56;;;;;;;29.58;18.13;;;;;;;26.98;62.83;97625.09;5032645;28;20433;-79
2022/08/10 05:47:22;;;;;;;38.92;21.60;;;;;;;28.21;58.36;97632.63;5036648;28;20029;-79
2022/08/10 05:49:48;;;;;;;50.92;24.27;;;;;;;29.26;54.49;97630.28;5031227;28;20056;-79
2022/08/10 05:52:15;;;;;;;40.20;19.98;;;;;;;29.86;52.46;97629.25;5035972;28;20034;-79
2022/08/10 05:54:41;;;;;;;34.97;20.90;;;;;;;30.17;51.29;97627.69;5029601;28;20030;-80
2022/08/10 05:57:07;;;;;;;42.65;22.13;;;;;;;30.48;50.45;97623.19;5019832;28;20526;-79
2022/08/10 05:59:34;;;;;;;38.50;23.95;;;;;;;30.82;49.38;97621.09;5029462;28;20026;-79
2022/08/10 06:02:04;;;;;;;64.15;27.63;;;;;;;31.36;48.17;97620.53;5047489;28;20028;-79
2022/08/10 06:07:20;;;;;;;40.22;21.67;;;;;;;31.39;47.14;97618.19;5029833;28;20499;-79
2022/08/10 06:09:46;;;;;;;39.22;23.55;;;;;;;31.53;46.51;97616.22;5029338;28;20025;-79
2022/08/10 06:12:13;;;;;;;70.00;28.02;;;;;;;31.49;45.94;97618.56;5012475;28;20053;-80
2022/08/10 06:17:34;;;;;;;42.50;25.58;;;;;;;31.91;44.10;97616.91;5036837;28;20128;-79
2022/08/10 06:20:00;;;;;;;50.83;27.15;;;;;;;32.54;43.51;97620.28;5032279;28;20104;-79
2022/08/10 06:22:30;;;;;;;43.25;24.95;;;;;;;33.33;40.96;97616.44;5018330;28;20049;-79
2022/08/10 06:24:57;;;;;;;49.28;26.25;;;;;;;33.64;40.62;97618.09;5046157;28;20021;-79
2022/08/10 06:27:23;;;;;;;42.53;24.27;;;;;;;34.02;39.63;97612.09;5049299;28;20549;-79
2022/08/10 06:29:50;;;;;;;65.03;21.92;;;;;;;33.14;40.96;97626.75;5032533;28;20052;-79
2022/08/10 06:32:16;;;;;;;73.88;23.42;;;;;;;34.33;39.39;97612.56;5029726;28;20045;-79
2022/08/10 06:34:45;;;;;;;66.38;24.45;;;;;;;34.34;38.37;97618.97;5035472;28;20021;-79
2022/08/10 06:37:12;;;;;;;51.53;22.35;;;;;;;34.29;39.33;97618.88;5048658;28;20029;-80
2022/08/10 06:39:37;;;;;;;50.78;27.30;;;;;;;35.65;36.75;97607.75;5026933;28;20025;-80
2022/08/10 06:42:15;;;;;;;50.20;24.80;;;;;;;35.34;36.41;97608.28;5021244;28;20460;-79
2022/08/10 06:44:58;;;;;;;58.97;29.73;;;;;;;35.07;36.23;97596.88;5044119;28;20484;-79
2022/08/10 06:47:36;;;;;;;51.78;24.88;;;;;;;35.59;35.40;97597.63;5008153;28;20116;-80
2022/08/10 06:50:07;;;;;;;39.25;21.02;;;;;;;35.00;35.92;97587.00;5047546;28;20472;-79
2022/08/10 06:52:34;;;;;;;41.80;22.38;;;;;;;35.37;35.97;97591.09;5019629;28;20029;-80
2022/08/10 06:55:01;;;;;;;52.55;25.33;;;;;;;34.91;36.31;97606.03;5028401;28;20057;-78
2022/08/10 06:57:30;;;;;;;54.58;24.13;;;;;;;35.17;36.08;97608.25;5028738;28;20029;-79
2022/08/10 06:59:56;;;;;;;63.33;24.65;;;;;;;35.84;35.28;97602.75;5044785;28;20587;-79
2022/08/10 07:02:35;;;;;;;69.60;27.67;;;;;;;35.59;34.94;97605.13;5012357;28;20093;-79
2022/08/10 07:05:06;;;;;;;60.13;28.40;;;;;;;35.54;34.89;97596.63;5012329;28;20045;-79
2022/08/10 07:07:38;;;;;;;59.97;29.92;;;;;;;36.29;33.78;97591.50;5037649;27;20068;-80
2022/08/10 07:10:05;;;;;;;60.92;25.92;;;;;;;36.59;33.77;97589.13;5012057;28;20040;-78
2022/08/10 07:12:30;;;;;;;68.63;30.67;;;;;;;36.43;33.66;97585.28;5031839;28;20078;-79
2022/08/10 07:14:57;;;;;;;55.17;27.73;;;;;;;36.69;33.56;97596.78;5031880;28;20033;-79
2022/08/10 07:17:24;;;;;;;56.38;26.27;;;;;;;36.96;32.91;97586.50;5012806;28;20025;-79
2022/08/10 07:19:55;;;;;;;57.97;31.52;;;;;;;37.33;32.76;97590.28;5026256;28;20029;-79
2022/08/10 07:22:24;;;;;;;26.55;22.20;;;;;;;38.01;32.09;97590.63;5037994;28;20037;-80
2022/08/10 07:24:51;;;;;;;58.05;26.13;;;;;;;37.04;33.06;97577.69;5031368;28;20021;-79
2022/08/10 07:27:17;;;;;;;54.45;27.58;;;;;;;36.28;34.15;97581.44;5031218;28;20051;-80
2022/08/10 07:29:43;;;;;;;54.92;28.55;;;;;;;36.94;33.47;97588.72;5045597;28;20025;-80
2022/08/10 07:32:11;;;;;;;46.72;24.40;;;;;;;37.07;33.07;97585.53;5011538;28;20069;-79
2022/08/10 07:34:37;;;;;;;45.60;24.83;;;;;;;36.72;33.53;97588.75;5030661;28;20031;-79
2022/08/10 07:37:06;;;;;;;60.90;23.65;;;;;;;37.56;32.23;97582.72;5028035;28;20052;-80
2022/08/10 07:39:37;;;;;;;60.28;28.80;;;;;;;37.86;31.85;97578.19;5027770;28;20033;-79
2022/08/10 07:42:06;;;;;;;61.75;34.97;;;;;;;37.67;31.93;97562.97;5024569;28;20539;-80
2022/08/10 07:44:32;;;;;;;53.00;26.15;;;;;;;37.75;32.12;97584.81;5030862;28;20033;-79
2022/08/10 07:47:02;;;;;;;57.58;29.08;;;;;;;38.60;31.05;97568.91;5042615;28;20025;-80
2022/08/10 07:49:33;;;;;;;63.25;34.63;;;;;;;39.45;29.50;97562.72;5047951;28;20460;-80
2022/08/10 07:51:59;;;;;;;58.60;30.80;;;;;;;39.73;28.70;97555.75;5031304;28;20020;-80
2022/08/10 07:54:26;;;;;;;63.28;29.05;;;;;;;40.22;28.57;97565.25;5047497;28;20411;-79
2022/08/10 07:56:56;;;;;;;59.72;33.80;;;;;;;40.80;28.02;97562.81;5044884;28;20025;-77
2022/08/10 07:59:25;;;;;;;54.40;29.73;;;;;;;40.27;28.29;97553.19;5024998;28;20033;-79
2022/08/10 08:01:53;;;;;;;66.82;25.77;;;;;;;39.53;28.68;97553.78;5038137;28;20029;-80
2022/08/10 08:04:21;;;;;;;51.13;28.92;;;;;;;39.97;28.71;97543.69;5033107;28;20033;-79
2022/08/10 08:06:47;;;;;;;63.75;34.95;;;;;;;40.26;28.60;97557.94;5024087;28;20045;-80
2022/08/10 08:09:13;;;;;;;62.50;31.83;;;;;;;40.74;27.63;97556.38;5024820;28;20040;-80
2022/08/10 08:11:42;;;;;;;67.65;29.10;;;;;;;39.83;28.70;97556.59;5008647;28;20033;-80
2022/08/10 08:14:08;;;;;;;59.40;32.58;;;;;;;39.93;28.50;97550.97;5015311;28;20563;-79
2022/08/10 08:16:36;;;;;;;56.05;29.70;;;;;;;39.58;29.42;97552.94;5044626;28;20032;-79
2022/08/10 08:19:03;;;;;;;61.83;30.67;;;;;;;39.50;28.79;97551.53;5041927;28;20029;-78
2022/08/10 08:21:29;;;;;;;57.10;28.15;;;;;;;40.29;27.95;97548.97;5027838;28;20510;-79
2022/08/10 08:23:55;;;;;;;55.30;28.48;;;;;;;40.34;27.79;97545.28;5022095;28;20054;-80
2022/08/10 08:26:21;;;;;;;55.22;31.02;;;;;;;39.99;28.35;97547.03;5031453;28;20154;-78
2022/08/10 08:28:48;;;;;;;46.30;29.00;;;;;;;39.31;29.07;97553.22;5030244;28;20475;-80
2022/08/10 08:31:14;;;;;;;52.08;25.58;;;;;;;39.91;27.97;97546.75;5031641;28;20025;-81
2022/08/10 08:33:41;;;;;;;54.35;28.15;;;;;;;39.06;28.62;97547.53;5043168;28;20044;-80
2022/08/10 08:36:08;;;;;;;33.10;21.58;;;;;;;37.77;30.30;97548.25;5035477;28;20029;-80
2022/08/10 08:38:35;;;;;;;38.15;21.85;;;;;;;37.23;31.80;97555.81;5035281;28;20029;-80
2022/08/10 08:41:38;;;;;;;33.70;21.55;;;;;;;37.18;31.97;97553.00;5044334;28;20111;-79
2022/08/10 08:44:20;;;;;;;49.33;22.33;;;;;;;38.73;29.44;97548.81;5044406;28;20052;-80
2022/08/10 08:46:55;;;;;;;47.92;22.35;;;;;;;38.64;30.27;97540.09;5011420;28;20067;-80
2022/08/10 08:49:30;;;;;;;46.50;23.60;;;;;;;36.98;31.46;97544.41;5036938;28;20071;-80
2022/08/10 08:52:05;;;;;;;40.97;20.67;;;;;;;37.52;31.05;97548.03;5040441;28;20500;-80
2022/08/10 08:55:00;;;;;;;54.05;26.73;;;;;;;37.76;30.84;97539.00;5024318;28;20055;-80
2022/08/10 08:57:42;;;;;;;53.35;25.30;;;;;;;38.24;30.62;97537.13;5008063;28;20472;-80
2022/08/10 09:00:13;;;;;;;56.80;26.20;;;;;;;39.51;28.93;97530.78;5029439;28;20032;-79
2022/08/10 09:03:05;;;;;;;56.95;23.08;;;;;;;39.62;28.49;97524.09;5018392;28;20049;-80
2022/08/10 09:05:36;;;;;;;53.78;26.33;;;;;;;38.54;30.17;97528.03;5013076;28;20137;-79
2022/08/10 09:08:24;;;;;;;53.08;25.50;;;;;;;40.14;28.60;97520.97;5037899;28;20025;-79
2022/08/10 09:11:23;;;;;;;58.67;24.70;;;;;;;40.22;28.79;97527.94;5025268;28;20068;-79
2022/08/10 09:13:58;;;;;;;53.33;21.40;;;;;;;40.84;26.68;97517.03;5023773;28;20406;-81
2022/08/10 09:16:42;;;;;;;59.58;32.97;;;;;;;41.21;26.58;97524.97;5024038;28;20040;-80
2022/08/10 09:19:47;;;;;;;54.50;29.83;;;;;;;39.87;28.36;97532.47;5031217;28;20036;-79
2022/08/10 09:22:12;;;;;;;53.17;24.52;;;;;;;39.94;28.45;97535.84;4990609;28;20460;-80
2022/08/10 09:25:03;;;;;;;63.58;28.13;;;;;;;41.87;26.05;97530.91;5033312;28;20029;-80
2022/08/10 09:27:33;;;;;;;29.77;21.75;;;;;;;41.88;25.54;97518.56;5043381;28;20479;-80
2022/08/10 09:30:09;;;;;;;55.75;27.80;;;;;;;41.67;25.58;97519.84;5039404;28;20029;-80
2022/08/10 09:32:51;;;;;;;52.60;30.83;;;;;;;39.59;28.19;97524.66;5017638;28;20041;-80
2022/08/10 09:35:28;;;;;;;64.20;29.65;;;;;;;39.54;27.22;97519.03;5019720;28;20042;-79
2022/08/10 09:37:58;;;;;;;53.08;32.30;;;;;;;37.65;29.35;97525.25;5030649;28;20020;-79
2022/08/10 09:40:53;;;;;;;33.42;21.63;;;;;;;37.08;30.38;97520.25;5029507;28;20029;-79
2022/08/10 09:43:24;;;;;;;37.80;22.80;;;;;;;36.22;32.41;97510.00;5038576;28;20112;-80
2022/08/10 09:46:05;;;;;;;37.97;21.50;;;;;;;35.59;32.69;97524.41;5024822;28;20399;-80
2022/08/10 09:49:01;;;;;;;27.63;22.52;;;;;;;34.09;35.52;97518.34;5033881;28;20032;-79
2022/08/10 09:52:02;;;;;;;53.47;22.30;;;;;;;34.10;35.37;97526.50;5035069;28;20032;-79
2022/08/10 09:54:34;;;;;;;29.23;18.58;;;;;;;33.36;37.45;97540.22;5060932;28;20168;-79
2022/08/10 09:57:05;;;;;;;;;;;;;;;33.36;38.18;97535.50;5043357;28;20068;-79
2022/08/10 09:59:33;;;;;;;24.17;18.33;;;;;;;32.32;40.04;97541.50;5023261;28;20317;-79
2022/08/10 10:02:08;;;;;;;53.53;20.00;;;;;;;32.95;39.97;97547.44;5035596;28;20041;-79
2022/08/10 10:04:54;;;;;;;40.47;21.83;;;;;;;33.37;38.78;97531.66;5041974;28;20033;-80
2022/08/10 10:07:25;;;;;;;21.10;18.35;;;;;;;32.41;40.64;97536.47;5029591;28;20025;-80
2022/08/10 10:10:00;;;;;;;57.13;22.83;;;;;;;32.26;40.61;97531.34;5042471;28;20044;-80
2022/08/10 10:12:39;;;;;;;49.25;25.45;;;;;;;31.80;41.79;97531.00;5014352;28;20040;-80
2022/08/10 10:15:20;;;;;;;38.42;22.20;;;;;;;32.66;40.11;97554.72;5023749;28;20033;-80
2022/08/10 10:18:07;;;;;;;21.40;17.63;;;;;;;32.74;40.73;97539.66;5033382;28;20112;-80
2022/08/10 10:21:02;;;;;;;58.33;24.00;;;;;;;32.19;40.85;97541.66;5040219;28;20029;-80
2022/08/10 10:23:58;;;;;;;25.52;22.75;;;;;;;31.94;41.86;97549.16;5012351;28;20064;-79
2022/08/10 10:26:45;;;;;;;26.40;21.23;;;;;;;33.26;39.50;97538.03;5032301;28;20036;-79
2022/08/10 10:29:48;;;;;;;52.95;22.20;;;;;;;35.74;35.48;97527.41;5046462;28;20548;-79
2022/08/10 10:32:51;;;;;;;64.03;24.45;;;;;;;37.89;32.70;97516.19;5043902;28;20385;-80
2022/08/10 10:35:34;;;;;;;46.60;15.57;;;;;;;36.95;33.00;97504.75;5038170;28;20038;-80
2022/08/10 10:38:01;;;;;;;27.55;12.73;;;;;;;35.10;35.45;97506.56;5044183;28;20057;-80
2022/08/10 10:40:33;;;;;;;28.42;16.40;;;;;;;34.72;36.92;97513.63;5024365;28;20123;-80
2022/08/10 10:43:29;;;;;;;15.77;10.85;;;;;;;34.45;36.96;97504.19;5037635;28;20029;-80
2022/08/10 10:46:05;;;;;;;42.45;13.70;;;;;;;35.37;36.23;97504.81;5032878;28;20044;-80
2022/08/10 10:48:45;;;;;;;29.35;12.35;;;;;;;34.88;36.53;97503.66;5024161;28;20033;-80
2022/08/10 10:51:42;;;;;;;37.65;12.55;;;;;;;34.74;37.05;97508.66;5038604;28;20121;-80
2022/08/10 10:54:09;;;;;;;51.40;15.57;;;;;;;33.78;38.52;97514.91;5012978;28;20037;-80
2022/08/10 10:56:51;;;;;;;25.10;13.90;;;;;;;32.70;40.85;97510.75;5029636;28;20127;-80
2022/08/10 10:59:44;;;;;;;19.20;9.10;;;;;;;31.94;41.48;97511.25;5020584;28;20124;-80
2022/08/10 11:02:42;;;;;;;17.85;11.05;;;;;;;31.58;42.01;97523.16;5035508;28;20131;-80
2022/08/10 11:05:33;;;;;;;21.02;10.63;;;;;;;31.56;42.42;97516.97;5025616;28;20548;-80
2022/08/10 11:08:09;;;;;;;22.80;10.98;;;;;;;31.26;42.59;97518.72;5007305;28;20033;-79
2022/08/10 11:10:40;;;;;;;23.75;11.13;;;;;;;31.24;42.56;97523.66;5038020;28;20469;-79
2022/08/10 11:13:18;;;;;;;16.40;10.73;;;;;;;31.25;42.65;97533.66;5016172;28;20074;-79
2022/08/10 11:16:08;;;;;;;20.17;9.25;;;;;;;31.08;43.50;97532.50;5033896;28;20033;-80
2022/08/10 11:19:10;;;;;;;20.10;9.00;;;;;;;31.32;43.08;97528.03;5015133;28;20043;-80
2022/08/10 11:21:56;;;;;;;21.27;11.25;;;;;;;32.70;40.75;97521.84;5045743;28;20114;-80
2022/08/10 11:24:37;;;;;;;25.95;12.45;;;;;;;32.90;40.63;97516.81;5029077;28;20100;-80
2022/08/10 11:27:32;;;;;;;14.63;9.98;;;;;;;33.65;39.19;97508.78;5035946;28;20111;-79
2022/08/10 11:30:03;;;;;;;37.15;16.60;;;;;;;34.05;38.25;97511.63;5030108;28;20033;-79
2022/08/10 11:32:40;;;;;;;52.30;17.17;;;;;;;33.91;37.60;97512.97;5040979;28;20150;-80
2022/08/10 11:35:53;;;;;;;56.88;18.48;;;;;;;33.92;38.74;97511.88;5014136;28;20488;-80
2022/08/10 11:38:48;;;;;;;30.80;16.67;;;;;;;35.93;35.61;97502.91;4988008;28;20038;-81
2022/08/10 11:41:39;;;;;;;54.13;18.58;;;;;;;36.85;33.09;97504.66;4988996;28;20072;-81
2022/08/10 11:44:28;;;;;;;56.53;20.98;;;;;;;36.55;33.59;97501.53;5033457;28;20559;-81
2022/08/10 11:47:14;;;;;;;51.15;19.73;;;;;;;34.88;35.93;97488.91;5041302;28;20033;-81
2022/08/10 11:50:01;;;;;;;41.75;13.80;;;;;;;33.88;37.85;97491.25;5031323;28;20400;-80